sensor_id;sensor_type;location;lat;lon;timestamp;pressure;altitude;pressure_sealevel;temperature;humidity
10712;BME280;5407;51.234;6.804;2022-10-16T00:01:07;100621.09;;;23.63;54.03
10712;BME280;5407;51.234;6.804;2022-10-16T00:03:34;100628.13;;;23.64;54.11
10712;BME280;5407;51.234;6.804;2022-10-16T00:06:01;100621.09;;;23.63;54.25
10712;BME280;5407;51.234;6.804;2022-10-16T00:08:29;100614.78;;;23.62;54.15
10712;BME280;5407;51.234;6.804;2022-10-16T00:11:00;100625.81;;;23.62;54.03
10712;BME280;5407;51.234;6.804;2022-10-16T00:13:28;100623.50;;;23.61;53.99
10712;BME280;5407;51.234;6.804;2022-10-16T00:15:55;100624.25;;;23.61;54.11
10712;BME280;5407;51.234;6.804;2022-10-16T00:18:24;100635.28;;;23.61;54.13
10712;BME280;5407;51.234;6.804;2022-10-16T00:20:51;100638.81;;;23.62;54.21
10712;BME280;5407;51.234;6.804;2022-10-16T00:23:18;100640.03;;;23.61;54.13
10712;BME280;5407;51.234;6.804;2022-10-16T00:25:54;100645.53;;;23.61;54.25
10712;BME280;5407;51.234;6.804;2022-10-16T00:28:22;100637.25;;;23.61;54.11
10712;BME280;5407;51.234;6.804;2022-10-16T00:30:48;100640.03;;;23.61;54.26
10712;BME280;5407;51.234;6.804;2022-10-16T00:33:15;100636.06;;;23.62;54.29
10712;BME280;5407;51.234;6.804;2022-10-16T00:35:44;100629.00;;;23.61;54.12
10712;BME280;5407;51.234;6.804;2022-10-16T00:38:10;100629.00;;;23.61;54.11
10712;BME280;5407;51.234;6.804;2022-10-16T00:40:37;100631.75;;;23.61;54.10
10712;BME280;5407;51.234;6.804;2022-10-16T00:43:12;100615.66;;;23.59;54.10
10712;BME280;5407;51.234;6.804;2022-10-16T00:45:39;100625.47;;;23.60;54.17
10712;BME280;5407;51.234;6.804;2022-10-16T00:48:10;100623.50;;;23.61;54.49
10712;BME280;5407;51.234;6.804;2022-10-16T00:50:39;100623.84;;;23.63;54.06
10712;BME280;5407;51.234;6.804;2022-10-16T00:53:10;100623.38;;;23.64;54.04
10712;BME280;5407;51.234;6.804;2022-10-16T00:55:38;100618.25;;;23.66;54.13
10712;BME280;5407;51.234;6.804;2022-10-16T00:58:05;100622.56;;;23.67;54.18
10712;BME280;5407;51.234;6.804;2022-10-16T01:00:32;100619.81;;;23.67;54.05
10712;BME280;5407;51.234;6.804;2022-10-16T01:03:01;100618.59;;;23.68;53.83
10712;BME280;5407;51.234;6.804;2022-10-16T01:05:32;100626.06;;;23.68;53.94
10712;BME280;5407;51.234;6.804;2022-10-16T01:08:07;100616.59;;;23.69;53.94
10712;BME280;5407;51.234;6.804;2022-10-16T01:10:40;100624.88;;;23.69;53.88
10712;BME280;5407;51.234;6.804;2022-10-16T01:13:12;100630.38;;;23.69;53.98
10712;BME280;5407;51.234;6.804;2022-10-16T01:15:45;100639.84;;;23.68;53.98
10712;BME280;5407;51.234;6.804;2022-10-16T01:18:17;100642.59;;;23.68;53.95
10712;BME280;5407;51.234;6.804;2022-10-16T01:20:47;100632.78;;;23.67;53.99
10712;BME280;5407;51.234;6.804;2022-10-16T01:23:28;100635.97;;;23.65;54.03
10712;BME280;5407;51.234;6.804;2022-10-16T01:26:26;100641.47;;;23.65;54.01
10712;BME280;5407;51.234;6.804;2022-10-16T01:29:03;100644.66;;;23.64;54.07
10712;BME280;5407;51.234;6.804;2022-10-16T01:31:35;100639.50;;;23.66;53.93
10712;BME280;5407;51.234;6.804;2022-10-16T01:34:05;100639.16;;;23.64;54.14
10712;BME280;5407;51.234;6.804;2022-10-16T01:36:37;100640.72;;;23.65;54.08
10712;BME280;5407;51.234;6.804;2022-10-16T01:39:07;100628.13;;;23.64;54.16
10712;BME280;5407;51.234;6.804;2022-10-16T01:41:38;100629.69;;;23.65;54.26
10712;BME280;5407;51.234;6.804;2022-10-16T01:44:10;100632.84;;;23.63;54.24
10712;BME280;5407;51.234;6.804;2022-10-16T01:46:41;100633.66;;;23.64;54.22
10712;BME280;5407;51.234;6.804;2022-10-16T01:49:10;100639.91;;;23.64;54.18
10712;BME280;5407;51.234;6.804;2022-10-16T01:51:38;100637.59;;;23.63;54.24
10712;BME280;5407;51.234;6.804;2022-10-16T01:54:08;100641.91;;;23.64;54.17
10712;BME280;5407;51.234;6.804;2022-10-16T01:56:35;100651.38;;;23.63;54.30
10712;BME280;5407;51.234;6.804;2022-10-16T01:59:06;100645.09;;;23.62;54.10
10712;BME280;5407;51.234;6.804;2022-10-16T02:01:38;100645.88;;;23.63;54.03
10712;BME280;5407;51.234;6.804;2022-10-16T02:04:11;100642.31;;;23.62;54.01
10712;BME280;5407;51.234;6.804;2022-10-16T02:06:39;100643.13;;;23.63;54.03
10712;BME280;5407;51.234;6.804;2022-10-16T02:09:06;100636.06;;;23.62;54.04
10712;BME280;5407;51.234;6.804;2022-10-16T02:11:34;100640.03;;;23.61;53.74
10712;BME280;5407;51.234;6.804;2022-10-16T02:14:03;100645.53;;;23.61;54.00
10712;BME280;5407;51.234;6.804;2022-10-16T02:16:35;100643.97;;;23.60;53.78
10712;BME280;5407;51.234;6.804;2022-10-16T02:19:05;100652.25;;;23.60;53.96
10712;BME280;5407;51.234;6.804;2022-10-16T02:21:39;100643.97;;;23.60;53.94
10712;BME280;5407;51.234;6.804;2022-10-16T02:24:10;100648.69;;;23.59;53.79
10712;BME280;5407;51.234;6.804;2022-10-16T02:26:44;100652.66;;;23.58;53.89
10712;BME280;5407;51.234;6.804;2022-10-16T02:29:15;100655.00;;;23.60;53.76
10712;BME280;5407;51.234;6.804;2022-10-16T02:31:46;100652.25;;;23.60;53.93
10712;BME280;5407;51.234;6.804;2022-10-16T02:34:18;100660.50;;;23.60;53.74
10712;BME280;5407;51.234;6.804;2022-10-16T02:36:48;100663.25;;;23.60;53.76
10712;BME280;5407;51.234;6.804;2022-10-16T02:39:18;100663.25;;;23.60;53.76
10712;BME280;5407;51.234;6.804;2022-10-16T02:41:45;100655.00;;;23.60;53.66
10712;BME280;5407;51.234;6.804;2022-10-16T02:44:12;100666.00;;;23.60;53.71
10712;BME280;5407;51.234;6.804;2022-10-16T02:46:39;100649.50;;;23.60;53.65
10712;BME280;5407;51.234;6.804;2022-10-16T02:49:06;100656.19;;;23.59;53.61
10712;BME280;5407;51.234;6.804;2022-10-16T02:51:34;100647.94;;;23.59;53.65
10712;BME280;5407;51.234;6.804;2022-10-16T02:54:01;100655.41;;;23.58;53.76
10712;BME280;5407;51.234;6.804;2022-10-16T02:56:28;100655.41;;;23.58;53.65
10712;BME280;5407;51.234;6.804;2022-10-16T02:58:56;100664.47;;;23.59;53.68
10712;BME280;5407;51.234;6.804;2022-10-16T03:01:23;100662.47;;;23.59;53.75
10712;BME280;5407;51.234;6.804;2022-10-16T03:03:50;100654.66;;;23.58;53.79
10712;BME280;5407;51.234;6.804;2022-10-16T03:06:17;100658.16;;;23.58;53.65
10712;BME280;5407;51.234;6.804;2022-10-16T03:08:45;100656.19;;;23.59;53.63
10712;BME280;5407;51.234;6.804;2022-10-16T03:11:12;100658.94;;;23.59;53.58
10712;BME280;5407;51.234;6.804;2022-10-16T03:13:39;100654.19;;;23.59;53.75
10712;BME280;5407;51.234;6.804;2022-10-16T03:16:06;100655.00;;;23.60;53.65
10712;BME280;5407;51.234;6.804;2022-10-16T03:18:32;100657.75;;;23.60;53.75
10712;BME280;5407;51.234;6.804;2022-10-16T03:20:59;100650.69;;;23.59;53.56
10712;BME280;5407;51.234;6.804;2022-10-16T03:23:26;100642.44;;;23.59;53.61
10712;BME280;5407;51.234;6.804;2022-10-16T03:25:54;100653.44;;;23.59;53.73
10712;BME280;5407;51.234;6.804;2022-10-16T03:28:21;100653.44;;;23.59;53.53
10712;BME280;5407;51.234;6.804;2022-10-16T03:30:48;100652.25;;;23.60;53.65
10712;BME280;5407;51.234;6.804;2022-10-16T03:33:15;100657.75;;;23.60;53.59
10712;BME280;5407;51.234;6.804;2022-10-16T03:35:42;100666.00;;;23.60;53.53
10712;BME280;5407;51.234;6.804;2022-10-16T03:38:09;100660.91;;;23.58;53.56
10712;BME280;5407;51.234;6.804;2022-10-16T03:40:35;100656.19;;;23.59;53.47
10712;BME280;5407;51.234;6.804;2022-10-16T03:43:04;100658.94;;;23.59;53.51
10712;BME280;5407;51.234;6.804;2022-10-16T03:45:31;100658.94;;;23.59;53.62
10712;BME280;5407;51.234;6.804;2022-10-16T03:47:58;100661.88;;;23.68;53.29
10712;BME280;5407;51.234;6.804;2022-10-16T03:50:25;100660.81;;;23.81;52.83
10712;BME280;5407;51.234;6.804;2022-10-16T03:52:52;100666.22;;;23.84;52.85
10712;BME280;5407;51.234;6.804;2022-10-16T03:55:19;100672.06;;;23.86;52.85
10712;BME280;5407;51.234;6.804;2022-10-16T03:57:46;100670.50;;;23.85;52.56
10712;BME280;5407;51.234;6.804;2022-10-16T04:00:14;100666.56;;;23.86;52.68
10712;BME280;5407;51.234;6.804;2022-10-16T04:02:41;100668.53;;;23.86;52.57
10712;BME280;5407;51.234;6.804;2022-10-16T04:05:08;100668.53;;;23.86;52.65
10712;BME280;5407;51.234;6.804;2022-10-16T04:07:35;100681.53;;;23.85;52.52
10712;BME280;5407;51.234;6.804;2022-10-16T04:10:02;100685.09;;;23.86;52.59
10712;BME280;5407;51.234;6.804;2022-10-16T04:12:29;100681.53;;;23.85;52.45
10712;BME280;5407;51.234;6.804;2022-10-16T04:14:56;100679.97;;;23.84;52.52
10712;BME280;5407;51.234;6.804;2022-10-16T04:17:24;100692.56;;;23.85;52.51
10712;BME280;5407;51.234;6.804;2022-10-16T04:19:51;100687.84;;;23.86;52.41
10712;BME280;5407;51.234;6.804;2022-10-16T04:22:18;100702.38;;;23.86;52.43
10712;BME280;5407;51.234;6.804;2022-10-16T04:24:45;100705.13;;;23.86;52.46
10712;BME280;5407;51.234;6.804;2022-10-16T04:27:11;100712.63;;;23.86;52.55
10712;BME280;5407;51.234;6.804;2022-10-16T04:29:38;100714.59;;;23.85;52.39
10712;BME280;5407;51.234;6.804;2022-10-16T04:32:05;100721.66;;;23.86;52.45
10712;BME280;5407;51.234;6.804;2022-10-16T04:34:35;100727.16;;;23.86;52.80
10712;BME280;5407;51.234;6.804;2022-10-16T04:37:03;100721.66;;;23.86;52.54
10712;BME280;5407;51.234;6.804;2022-10-16T04:39:30;100713.41;;;23.86;52.60
10712;BME280;5407;51.234;6.804;2022-10-16T04:41:57;100712.19;;;23.87;52.61
10712;BME280;5407;51.234;6.804;2022-10-16T04:44:24;100701.97;;;23.88;52.55
10712;BME280;5407;51.234;6.804;2022-10-16T04:46:50;100701.53;;;23.89;52.71
10712;BME280;5407;51.234;6.804;2022-10-16T04:49:17;100712.56;;;23.89;52.76
10712;BME280;5407;51.234;6.804;2022-10-16T04:51:46;100719.25;;;23.88;52.62
10712;BME280;5407;51.234;6.804;2022-10-16T04:54:13;100729.09;;;23.89;52.68
10712;BME280;5407;51.234;6.804;2022-10-16T04:56:40;100739.31;;;23.89;52.63
10712;BME280;5407;51.234;6.804;2022-10-16T04:59:12;100744.84;;;23.89;52.54
10712;BME280;5407;51.234;6.804;2022-10-16T05:01:39;100744.03;;;23.88;52.59
10712;BME280;5407;51.234;6.804;2022-10-16T05:04:06;100742.50;;;23.87;52.53
10712;BME280;5407;51.234;6.804;2022-10-16T05:06:33;100742.50;;;23.87;52.71
10712;BME280;5407;51.234;6.804;2022-10-16T05:09:02;100743.28;;;23.88;52.55
10712;BME280;5407;51.234;6.804;2022-10-16T05:11:29;100742.50;;;23.87;52.67
10712;BME280;5407;51.234;6.804;2022-10-16T05:13:55;100751.22;;;23.86;52.62
10712;BME280;5407;51.234;6.804;2022-10-16T05:16:22;100746.47;;;23.86;52.54
10712;BME280;5407;51.234;6.804;2022-10-16T05:18:50;100753.97;;;23.86;52.48
10712;BME280;5407;51.234;6.804;2022-10-16T05:21:18;100764.19;;;23.85;52.61
10712;BME280;5407;51.234;6.804;2022-10-16T05:23:44;100774.00;;;23.86;52.55
10712;BME280;5407;51.234;6.804;2022-10-16T05:26:13;100768.16;;;23.84;52.45
10712;BME280;5407;51.234;6.804;2022-10-16T05:28:39;100770.91;;;23.84;52.54
10712;BME280;5407;51.234;6.804;2022-10-16T05:31:07;100770.91;;;23.84;52.59
10712;BME280;5407;51.234;6.804;2022-10-16T05:33:34;100764.19;;;23.85;52.56
10712;BME280;5407;51.234;6.804;2022-10-16T05:36:02;100759.13;;;23.84;52.55
10712;BME280;5407;51.234;6.804;2022-10-16T05:38:29;100770.91;;;23.84;52.63
10712;BME280;5407;51.234;6.804;2022-10-16T05:40:56;100776.41;;;23.84;52.53
10712;BME280;5407;51.234;6.804;2022-10-16T05:43:26;100780.38;;;23.83;52.56
10712;BME280;5407;51.234;6.804;2022-10-16T05:45:54;100777.63;;;23.83;52.72
10712;BME280;5407;51.234;6.804;2022-10-16T05:48:21;100794.16;;;23.83;52.66
10712;BME280;5407;51.234;6.804;2022-10-16T05:50:48;100789.78;;;23.86;52.42
10712;BME280;5407;51.234;6.804;2022-10-16T05:53:22;100796.06;;;23.86;50.65
10712;BME280;5407;51.234;6.804;2022-10-16T05:55:53;100792.88;;;23.88;50.15
10712;BME280;5407;51.234;6.804;2022-10-16T05:58:21;100791.28;;;23.90;49.73
10712;BME280;5407;51.234;6.804;2022-10-16T06:00:56;100797.19;;;23.89;49.59
10712;BME280;5407;51.234;6.804;2022-10-16T06:03:23;100810.56;;;23.90;49.61
10712;BME280;5407;51.234;6.804;2022-10-16T06:05:50;100811.75;;;23.89;49.38
10712;BME280;5407;51.234;6.804;2022-10-16T06:08:17;100808.22;;;23.89;49.30
10712;BME280;5407;51.234;6.804;2022-10-16T06:10:44;100817.28;;;23.89;49.25
10712;BME280;5407;51.234;6.804;2022-10-16T06:13:12;100816.47;;;23.89;50.04
10712;BME280;5407;51.234;6.804;2022-10-16T06:15:40;100822.41;;;23.87;49.96
10712;BME280;5407;51.234;6.804;2022-10-16T06:18:09;100830.25;;;23.89;49.45
10712;BME280;5407;51.234;6.804;2022-10-16T06:20:36;100817.28;;;23.89;48.96
10712;BME280;5407;51.234;6.804;2022-10-16T06:23:03;100825.16;;;23.87;49.00
10712;BME280;5407;51.234;6.804;2022-10-16T06:25:31;100822.06;;;23.85;48.92
10712;BME280;5407;51.234;6.804;2022-10-16T06:27:58;100827.22;;;23.83;48.96
10712;BME280;5407;51.234;6.804;2022-10-16T06:30:24;100836.69;;;23.82;48.77
10712;BME280;5407;51.234;6.804;2022-10-16T06:32:51;100821.38;;;23.81;48.65
10712;BME280;5407;51.234;6.804;2022-10-16T06:35:19;100817.47;;;23.79;48.68
10712;BME280;5407;51.234;6.804;2022-10-16T06:37:46;100830.91;;;23.77;48.82
10712;BME280;5407;51.234;6.804;2022-10-16T06:40:13;100840.38;;;23.76;48.84
10712;BME280;5407;51.234;6.804;2022-10-16T06:42:41;100846.28;;;23.74;48.95
10712;BME280;5407;51.234;6.804;2022-10-16T06:45:08;100855.00;;;23.73;48.75
10712;BME280;5407;51.234;6.804;2022-10-16T06:47:35;100856.94;;;23.73;48.88
10712;BME280;5407;51.234;6.804;2022-10-16T06:50:03;100860.16;;;23.71;48.75
10712;BME280;5407;51.234;6.804;2022-10-16T06:52:33;100875.88;;;23.71;48.81
10712;BME280;5407;51.234;6.804;2022-10-16T06:55:00;100875.13;;;23.70;48.88
10712;BME280;5407;51.234;6.804;2022-10-16T06:57:28;100882.59;;;23.70;48.78
10712;BME280;5407;51.234;6.804;2022-10-16T06:59:55;100875.53;;;23.69;48.85
10712;BME280;5407;51.234;6.804;2022-10-16T07:02:22;100882.25;;;23.68;49.07
10712;BME280;5407;51.234;6.804;2022-10-16T07:04:48;100884.25;;;23.67;49.04
10712;BME280;5407;51.234;6.804;2022-10-16T07:07:15;100886.19;;;23.67;48.79
10712;BME280;5407;51.234;6.804;2022-10-16T07:09:43;100888.59;;;23.65;48.92
10712;BME280;5407;51.234;6.804;2022-10-16T07:12:10;100894.13;;;23.65;48.85
10712;BME280;5407;51.234;6.804;2022-10-16T07:14:37;100899.63;;;23.65;48.90
10712;BME280;5407;51.234;6.804;2022-10-16T07:17:04;100903.56;;;23.64;48.74
10712;BME280;5407;51.234;6.804;2022-10-16T07:19:31;100903.56;;;23.64;48.86
10712;BME280;5407;51.234;6.804;2022-10-16T07:21:57;100910.28;;;23.63;48.70
10712;BME280;5407;51.234;6.804;2022-10-16T07:24:24;100921.72;;;23.61;48.94
10712;BME280;5407;51.234;6.804;2022-10-16T07:26:53;100926.47;;;23.61;48.77
10712;BME280;5407;51.234;6.804;2022-10-16T07:29:21;100927.66;;;23.60;48.85
10712;BME280;5407;51.234;6.804;2022-10-16T07:31:48;100924.91;;;23.60;49.04
10712;BME280;5407;51.234;6.804;2022-10-16T07:34:17;100939.88;;;23.59;48.93
10712;BME280;5407;51.234;6.804;2022-10-16T07:36:44;100940.66;;;23.59;48.91
10712;BME280;5407;51.234;6.804;2022-10-16T07:39:11;100943.84;;;23.58;48.90
10712;BME280;5407;51.234;6.804;2022-10-16T07:41:38;100943.84;;;23.58;48.99
10712;BME280;5407;51.234;6.804;2022-10-16T07:44:06;100953.31;;;23.57;48.82
10712;BME280;5407;51.234;6.804;2022-10-16T07:46:33;100957.25;;;23.56;49.06
10712;BME280;5407;51.234;6.804;2022-10-16T07:49:01;100952.50;;;23.56;48.99
10712;BME280;5407;51.234;6.804;2022-10-16T07:51:28;100961.22;;;23.55;48.97
10712;BME280;5407;51.234;6.804;2022-10-16T07:53:55;100962.75;;;23.56;49.02
10712;BME280;5407;51.234;6.804;2022-10-16T07:56:22;100961.97;;;23.55;49.00
10712;BME280;5407;51.234;6.804;2022-10-16T07:58:50;100962.41;;;23.54;49.10
10712;BME280;5407;51.234;6.804;2022-10-16T08:01:18;100969.13;;;23.53;49.03
10712;BME280;5407;51.234;6.804;2022-10-16T08:03:47;100976.19;;;23.54;49.05
10712;BME280;5407;51.234;6.804;2022-10-16T08:06:15;100981.69;;;23.54;48.95
10712;BME280;5407;51.234;6.804;2022-10-16T08:08:41;100985.63;;;23.53;49.05
10712;BME280;5407;51.234;6.804;2022-10-16T08:11:08;100985.63;;;23.53;49.18
10712;BME280;5407;51.234;6.804;2022-10-16T08:13:35;100984.84;;;23.52;49.20
10712;BME280;5407;51.234;6.804;2022-10-16T08:16:03;100998.63;;;23.52;48.83
10712;BME280;5407;51.234;6.804;2022-10-16T08:18:34;100988.03;;;23.51;49.05
10712;BME280;5407;51.234;6.804;2022-10-16T08:21:02;100995.09;;;23.52;49.00
10712;BME280;5407;51.234;6.804;2022-10-16T08:23:30;101003.38;;;23.52;48.81
10712;BME280;5407;51.234;6.804;2022-10-16T08:26:03;101001.81;;;23.51;48.97
10712;BME280;5407;51.234;6.804;2022-10-16T08:28:30;101011.63;;;23.52;48.60
10712;BME280;5407;51.234;6.804;2022-10-16T08:31:04;101008.50;;;23.50;48.72
10712;BME280;5407;51.234;6.804;2022-10-16T08:33:31;101004.56;;;23.51;48.33
10712;BME280;5407;51.234;6.804;2022-10-16T08:36:02;101010.06;;;23.51;48.57
10712;BME280;5407;51.234;6.804;2022-10-16T08:38:29;101021.09;;;23.51;48.16
10712;BME280;5407;51.234;6.804;2022-10-16T08:41:02;101022.66;;;23.52;48.41
10712;BME280;5407;51.234;6.804;2022-10-16T08:46:37;101021.94;;;23.48;48.76
10712;BME280;5407;51.234;6.804;2022-10-16T08:49:11;101017.19;;;23.48;48.87
10712;BME280;5407;51.234;6.804;2022-10-16T08:51:40;101026.25;;;23.49;48.51
10712;BME280;5407;51.234;6.804;2022-10-16T08:54:21;101043.13;;;23.51;48.48
10712;BME280;5407;51.234;6.804;2022-10-16T08:56:49;101043.53;;;23.49;48.22
10712;BME280;5407;51.234;6.804;2022-10-16T08:59:16;101049.47;;;23.48;48.46
10712;BME280;5407;51.234;6.804;2022-10-16T09:01:46;101054.53;;;23.49;48.33
10712;BME280;5407;51.234;6.804;2022-10-16T09:04:43;101056.53;;;23.49;48.32
10712;BME280;5407;51.234;6.804;2022-10-16T09:07:21;101056.44;;;23.52;48.50
10712;BME280;5407;51.234;6.804;2022-10-16T09:10:05;101058.72;;;23.57;47.42
10712;BME280;5407;51.234;6.804;2022-10-16T09:12:40;101060.72;;;23.57;47.69
10712;BME280;5407;51.234;6.804;2022-10-16T09:15:19;101056.03;;;23.54;47.83
10712;BME280;5407;51.234;6.804;2022-10-16T09:17:56;101063.59;;;23.50;48.03
10712;BME280;5407;51.234;6.804;2022-10-16T09:20:34;101067.13;;;23.50;47.65
10712;BME280;5407;51.234;6.804;2022-10-16T09:23:14;101064.78;;;23.49;47.57
10712;BME280;5407;51.234;6.804;2022-10-16T09:25:44;101066.00;;;23.48;47.50
10712;BME280;5407;51.234;6.804;2022-10-16T09:28:13;101071.06;;;23.49;47.64
10712;BME280;5407;51.234;6.804;2022-10-16T09:30:41;101072.56;;;23.54;47.09
10712;BME280;5407;51.234;6.804;2022-10-16T09:33:09;101080.13;;;23.50;47.28
10712;BME280;5407;51.234;6.804;2022-10-16T09:35:38;101082.16;;;23.46;47.80
10712;BME280;5407;51.234;6.804;2022-10-16T09:38:05;101077.84;;;23.45;47.62
10712;BME280;5407;51.234;6.804;2022-10-16T09:40:35;101088.84;;;23.45;47.54
10712;BME280;5407;51.234;6.804;2022-10-16T09:43:15;101078.56;;;23.49;47.58
10712;BME280;5407;51.234;6.804;2022-10-16T09:45:57;101086.47;;;23.47;47.79
10712;BME280;5407;51.234;6.804;2022-10-16T09:48:27;101071.50;;;23.48;47.82
10712;BME280;5407;51.234;6.804;2022-10-16T09:50:59;101077.78;;;23.48;47.83
10712;BME280;5407;51.234;6.804;2022-10-16T09:53:40;101081.31;;;23.49;47.96
10712;BME280;5407;51.234;6.804;2022-10-16T09:56:10;101074.53;;;23.53;47.16
10712;BME280;5407;51.234;6.804;2022-10-16T09:58:42;101072.97;;;23.52;47.30
10712;BME280;5407;51.234;6.804;2022-10-16T10:01:13;101080.84;;;23.54;46.90
10712;BME280;5407;51.234;6.804;2022-10-16T10:03:42;101075.31;;;23.54;46.88
10712;BME280;5407;51.234;6.804;2022-10-16T10:06:22;101084.78;;;23.53;47.84
10712;BME280;5407;51.234;6.804;2022-10-16T10:08:59;101083.22;;;23.52;47.80
10712;BME280;5407;51.234;6.804;2022-10-16T10:11:50;101077.72;;;23.52;47.74
10712;BME280;5407;51.234;6.804;2022-10-16T10:14:31;101087.09;;;23.54;47.81
10712;BME280;5407;51.234;6.804;2022-10-16T10:17:14;101076.88;;;23.55;47.27
10712;BME280;5407;51.234;6.804;2022-10-16T10:19:46;101070.59;;;23.54;47.06
10712;BME280;5407;51.234;6.804;2022-10-16T10:22:17;101080.41;;;23.55;47.51
10712;BME280;5407;51.234;6.804;2022-10-16T10:24:54;101081.56;;;23.58;46.97
10712;BME280;5407;51.234;6.804;2022-10-16T10:27:28;101090.16;;;23.60;46.28
10712;BME280;5407;51.234;6.804;2022-10-16T10:30:02;101079.16;;;23.60;47.18
10712;BME280;5407;51.234;6.804;2022-10-16T10:32:38;101079.91;;;23.60;46.78
10712;BME280;5407;51.234;6.804;2022-10-16T10:35:15;101072.00;;;23.62;46.57
10712;BME280;5407;51.234;6.804;2022-10-16T10:37:59;101080.72;;;23.61;46.63
10712;BME280;5407;51.234;6.804;2022-10-16T10:40:39;101091.72;;;23.61;46.79
10712;BME280;5407;51.234;6.804;2022-10-16T10:43:15;101084.66;;;23.60;46.40
10712;BME280;5407;51.234;6.804;2022-10-16T10:45:46;101097.25;;;23.61;46.83
10712;BME280;5407;51.234;6.804;2022-10-16T10:48:21;101096.03;;;23.62;46.48
10712;BME280;5407;51.234;6.804;2022-10-16T10:50:54;101090.09;;;23.63;46.63
10712;BME280;5407;51.234;6.804;2022-10-16T10:53:34;101081.06;;;23.63;46.39
10712;BME280;5407;51.234;6.804;2022-10-16T10:56:13;101090.09;;;23.63;46.68
10712;BME280;5407;51.234;6.804;2022-10-16T10:59:08;101097.16;;;23.64;46.97
10712;BME280;5407;51.234;6.804;2022-10-16T11:01:44;101108.56;;;23.66;47.11
10712;BME280;5407;51.234;6.804;2022-10-16T11:04:49;101112.09;;;23.67;47.38
10712;BME280;5407;51.234;6.804;2022-10-16T11:07:23;101099.47;;;23.69;48.02
10712;BME280;5407;51.234;6.804;2022-10-16T11:09:54;101097.47;;;23.70;48.43
10712;BME280;5407;51.234;6.804;2022-10-16T11:12:27;101113.16;;;23.73;48.65
10712;BME280;5407;51.234;6.804;2022-10-16T11:15:00;101109.22;;;23.73;48.01
10712;BME280;5407;51.234;6.804;2022-10-16T11:17:31;101111.56;;;23.75;48.66
10712;BME280;5407;51.234;6.804;2022-10-16T11:20:03;101107.16;;;23.77;48.59
10712;BME280;5407;51.234;6.804;2022-10-16T11:22:34;101110.28;;;23.79;48.77
10712;BME280;5407;51.234;6.804;2022-10-16T11:25:11;101100.44;;;23.82;48.99
10712;BME280;5407;51.234;6.804;2022-10-16T11:27:41;101107.06;;;23.84;48.81
10712;BME280;5407;51.234;6.804;2022-10-16T11:30:16;101115.69;;;23.86;47.96
10712;BME280;5407;51.234;6.804;2022-10-16T11:32:56;101113.28;;;23.88;48.48
10712;BME280;5407;51.234;6.804;2022-10-16T11:35:37;101103.88;;;23.89;48.63
10712;BME280;5407;51.234;6.804;2022-10-16T11:38:11;101103.03;;;23.92;48.57
10712;BME280;5407;51.234;6.804;2022-10-16T11:40:41;101106.91;;;23.95;48.68
10712;BME280;5407;51.234;6.804;2022-10-16T11:43:13;101103.72;;;23.96;48.60
10712;BME280;5407;51.234;6.804;2022-10-16T11:45:45;101122.94;;;24.00;48.71
10712;BME280;5407;51.234;6.804;2022-10-16T11:48:20;101111.50;;;24.01;48.71
10712;BME280;5407;51.234;6.804;2022-10-16T11:50:52;101120.13;;;24.03;48.65
10712;BME280;5407;51.234;6.804;2022-10-16T11:53:27;101105.16;;;24.04;48.55
10712;BME280;5407;51.234;6.804;2022-10-16T11:55:58;101108.25;;;24.06;48.77
10712;BME280;5407;51.234;6.804;2022-10-16T11:58:28;101120.50;;;24.05;47.44
10712;BME280;5407;51.234;6.804;2022-10-16T12:01:13;101121.69;;;24.04;46.49
10712;BME280;5407;51.234;6.804;2022-10-16T12:03:46;101118.50;;;24.06;46.57
10712;BME280;5407;51.234;6.804;2022-10-16T12:06:25;101115.38;;;24.04;45.72
10712;BME280;5407;51.234;6.804;2022-10-16T12:08:54;101123.25;;;24.05;45.56
10712;BME280;5407;51.234;6.804;2022-10-16T12:11:33;101117.72;;;24.05;45.25
10712;BME280;5407;51.234;6.804;2022-10-16T12:14:06;101120.50;;;24.05;45.77
10712;BME280;5407;51.234;6.804;2022-10-16T12:16:37;101126.75;;;24.06;45.57
10712;BME280;5407;51.234;6.804;2022-10-16T12:19:12;101132.63;;;24.08;44.60
10712;BME280;5407;51.234;6.804;2022-10-16T12:21:40;101125.50;;;24.10;44.46
10712;BME280;5407;51.234;6.804;2022-10-16T12:24:20;101124.72;;;24.10;44.42
10712;BME280;5407;51.234;6.804;2022-10-16T12:26:48;101118.81;;;24.11;43.97
10712;BME280;5407;51.234;6.804;2022-10-16T12:29:31;101123.91;;;24.13;43.89
10712;BME280;5407;51.234;6.804;2022-10-16T12:32:02;101124.66;;;24.13;43.95
10712;BME280;5407;51.234;6.804;2022-10-16T12:34:35;101114.44;;;24.14;43.92
10712;BME280;5407;51.234;6.804;2022-10-16T12:37:13;101116.75;;;24.15;44.23
10712;BME280;5407;51.234;6.804;2022-10-16T12:39:41;101118.31;;;24.16;44.12
10712;BME280;5407;51.234;6.804;2022-10-16T12:42:21;101115.56;;;24.16;44.30
10712;BME280;5407;51.234;6.804;2022-10-16T12:44:49;101118.66;;;24.18;44.25
10712;BME280;5407;51.234;6.804;2022-10-16T12:47:22;101109.63;;;24.18;44.09
10712;BME280;5407;51.234;6.804;2022-10-16T12:49:52;101116.69;;;24.19;44.13
10712;BME280;5407;51.234;6.804;2022-10-16T12:52:34;101117.47;;;24.19;44.35
10712;BME280;5407;51.234;6.804;2022-10-16T12:55:03;101124.88;;;24.22;44.25
10712;BME280;5407;51.234;6.804;2022-10-16T12:57:40;101124.13;;;24.22;44.40
10712;BME280;5407;51.234;6.804;2022-10-16T13:00:18;101130.75;;;24.24;44.34
10712;BME280;5407;51.234;6.804;2022-10-16T13:03:14;101125.25;;;24.24;44.27
10712;BME280;5407;51.234;6.804;2022-10-16T13:05:56;101118.53;;;24.25;44.27
10712;BME280;5407;51.234;6.804;2022-10-16T13:08:39;101117.75;;;24.25;44.27
10712;BME280;5407;51.234;6.804;2022-10-16T13:11:17;101122.84;;;24.26;44.25
10712;BME280;5407;51.234;6.804;2022-10-16T13:14:03;101118.88;;;24.27;44.29
10712;BME280;5407;51.234;6.804;2022-10-16T13:16:49;101124.41;;;24.27;44.56
10712;BME280;5407;51.234;6.804;2022-10-16T13:19:24;101127.16;;;24.27;44.02
10712;BME280;5407;51.234;6.804;2022-10-16T13:22:01;101127.59;;;24.26;44.06